Time;durP1;ratioP1;P1;durP2;ratioP2;P2;SDS_P1;SDS_P2;PMS_P1;PMS_P2;Temp;Humidity;BMP_temperature;BMP_pressure;BME280_temperature;BME280_humidity;BME280_pressure;Samples;Min_cycle;Max_cycle;Signal;HPM_P1;HPM_P2
2021/11/02 00:00:09;;;;;;;;;3.75;1.50;;;;;;;;5054194;28;45407;-74
2021/11/02 00:02:34;;;;;;;;;1.00;1.00;;;;;;;;5054947;28;45357;-74
2021/11/02 00:05:00;;;;;;;;;1.50;1.50;;;;;;;;5055753;28;45430;-75
2021/11/02 00:07:26;;;;;;;;;3.50;2.50;;;;;;;;5057813;28;45296;-75
2021/11/02 00:09:52;;;;;;;;;1.00;1.00;;;;;;;;5057723;28;45329;-75
2021/11/02 00:12:18;;;;;;;;;3.50;1.00;;;;;;;;5039023;28;45634;-75
2021/11/02 00:14:43;;;;;;;;;0.25;0.25;;;;;;;;5056705;28;45529;-75
2021/11/02 00:17:16;;;;;;;;;1.00;1.00;;;;;;;;5055770;28;45351;-75
2021/11/02 00:19:44;;;;;;;;;2.00;1.00;;;;;;;;5056428;28;45403;-75
2021/11/02 00:22:16;;;;;;;;;1.00;1.00;;;;;;;;5058277;28;45506;-75
2021/11/02 00:27:17;;;;;;;;;2.25;1.25;;;;;;;;5056058;28;46855;-74
2021/11/02 00:29:43;;;;;;;;;0.75;0.75;;;;;;;;5056580;28;45506;-73
2021/11/02 00:32:08;;;;;;;;;1.50;1.50;;;;;;;;5056142;28;45566;-73
2021/11/02 00:34:33;;;;;;;;;1.00;1.00;;;;;;;;5056254;28;46820;-73
2021/11/02 00:36:59;;;;;;;;;1.75;0.00;;;;;;;;5058055;28;45546;-73
2021/11/02 00:39:24;;;;;;;;;1.00;1.00;;;;;;;;5055749;28;45403;-73
2021/11/02 00:41:49;;;;;;;;;1.00;1.00;;;;;;;;5055914;28;45417;-73
2021/11/02 00:44:15;;;;;;;;;2.00;1.00;;;;;;;;5055797;28;46270;-73
2021/11/02 00:46:40;;;;;;;;;0.00;0.00;;;;;;;;5055754;28;45428;-73
2021/11/02 00:49:07;;;;;;;;;2.00;0.00;;;;;;;;5036529;28;45256;-73
2021/11/02 00:51:32;;;;;;;;;2.25;1.25;;;;;;;;5035774;28;45517;-73
2021/11/02 00:53:58;;;;;;;;;1.50;0.00;;;;;;;;5035003;28;46190;-75
2021/11/02 00:56:23;;;;;;;;;1.25;0.75;;;;;;;;5033982;28;45264;-74
2021/11/02 00:58:48;;;;;;;;;1.00;0.00;;;;;;;;5032739;28;45934;-73
2021/11/02 01:01:14;;;;;;;;;0.75;0.75;;;;;;;;5037967;28;45430;-74
2021/11/02 01:03:39;;;;;;;;;0.00;0.00;;;;;;;;5035204;28;46207;-74
2021/11/02 01:06:05;;;;;;;;;1.00;0.00;;;;;;;;5035537;28;45478;-74
2021/11/02 01:08:30;;;;;;;;;1.75;0.75;;;;;;;;5035387;28;45423;-74
2021/11/02 01:10:55;;;;;;;;;1.00;1.00;;;;;;;;5035736;28;45425;-74
2021/11/02 01:13:22;;;;;;;;;1.00;1.00;;;;;;;;5036773;28;46254;-74
2021/11/02 01:15:47;;;;;;;;;0.25;0.25;;;;;;;;5035895;28;45404;-74
2021/11/02 01:18:12;;;;;;;;;0.00;0.00;;;;;;;;5035418;28;45686;-74
2021/11/02 01:20:38;;;;;;;;;1.50;0.00;;;;;;;;5035782;28;45514;-74
2021/11/02 01:23:04;;;;;;;;;1.00;1.00;;;;;;;;5034974;28;46164;-75
2021/11/02 01:25:29;;;;;;;;;1.00;1.00;;;;;;;;5036010;28;45347;-74
2021/11/02 01:27:54;;;;;;;;;1.00;1.00;;;;;;;;5037113;28;45240;-74
2021/11/02 01:30:19;;;;;;;;;0.00;0.00;;;;;;;;5035182;28;46779;-74
2021/11/02 01:32:45;;;;;;;;;0.75;0.00;;;;;;;;5035095;28;46096;-74
2021/11/02 01:35:10;;;;;;;;;0.75;0.75;;;;;;;;5033591;28;45283;-73
2021/11/02 01:37:39;;;;;;;;;0.75;0.75;;;;;;;;5035192;28;45468;-75
2021/11/02 01:40:05;;;;;;;;;3.00;0.00;;;;;;;;5036081;28;45478;-74
2021/11/02 01:42:30;;;;;;;;;2.00;0.00;;;;;;;;5033383;28;45970;-74
2021/11/02 01:44:56;;;;;;;;;0.00;0.00;;;;;;;;5035132;28;45498;-74
2021/11/02 01:47:21;;;;;;;;;1.75;1.00;;;;;;;;5033612;28;45437;-74
2021/11/02 01:49:47;;;;;;;;;2.25;0.25;;;;;;;;5053283;28;45343;-74
2021/11/02 01:52:12;;;;;;;;;1.00;1.00;;;;;;;;5052523;28;45951;-74
2021/11/02 01:54:38;;;;;;;;;2.00;2.00;;;;;;;;5055020;28;45475;-74
2021/11/02 01:57:04;;;;;;;;;0.25;0.25;;;;;;;;5054754;28;45520;-74
2021/11/02 01:59:31;;;;;;;;;1.00;1.00;;;;;;;;5055772;28;45510;-74
2021/11/02 02:02:00;;;;;;;;;1.00;1.00;;;;;;;;5055259;28;47310;-74
2021/11/02 02:04:45;;;;;;;;;0.75;0.75;;;;;;;;5055833;28;45280;-74
2021/11/02 02:07:16;;;;;;;;;2.00;1.00;;;;;;;;5056838;28;45351;-73
2021/11/02 02:10:10;;;;;;;;;1.75;0.50;;;;;;;;5053684;28;45411;-73
2021/11/02 02:12:47;;;;;;;;;2.00;1.00;;;;;;;;5037626;28;46328;-73
2021/11/02 02:15:13;;;;;;;;;2.00;1.00;;;;;;;;5052997;28;45620;-73
2021/11/02 02:17:58;;;;;;;;;0.00;0.00;;;;;;;;5053397;28;45375;-74
2021/11/02 02:20:29;;;;;;;;;0.00;0.00;;;;;;;;5039866;28;45580;-74
2021/11/02 02:23:18;;;;;;;;;1.00;1.00;;;;;;;;5054403;28;45509;-74
2021/11/02 02:25:53;;;;;;;;;1.00;1.00;;;;;;;;5024741;28;45417;-74
2021/11/02 02:28:20;;;;;;;;;0.00;0.00;;;;;;;;5058906;28;45677;-75
2021/11/02 02:30:53;;;;;;;;;1.25;1.25;;;;;;;;5054033;28;45519;-74
2021/11/02 02:33:21;;;;;;;;;5.00;1.00;;;;;;;;5054122;28;45494;-74
2021/11/02 02:35:46;;;;;;;;;1.75;1.00;;;;;;;;5053571;28;45546;-74
2021/11/02 02:38:13;;;;;;;;;1.50;1.00;;;;;;;;5036287;28;45653;-74
2021/11/02 02:40:39;;;;;;;;;1.50;1.00;;;;;;;;5036314;28;45462;-74
2021/11/02 02:43:05;;;;;;;;;1.00;1.00;;;;;;;;5056256;28;46388;-74
2021/11/02 02:45:31;;;;;;;;;1.50;1.00;;;;;;;;5054125;28;45327;-74
2021/11/02 02:47:58;;;;;;;;;3.00;2.00;;;;;;;;5053938;28;45292;-74
2021/11/02 02:50:24;;;;;;;;;1.25;1.00;;;;;;;;5053830;28;45449;-74
2021/11/02 02:52:51;;;;;;;;;2.00;2.00;;;;;;;;5052431;28;46171;-74
2021/11/02 02:55:16;;;;;;;;;1.00;1.00;;;;;;;;5055857;28;45418;-74
2021/11/02 02:57:43;;;;;;;;;0.50;0.50;;;;;;;;5054455;28;45537;-74
2021/11/02 03:00:10;;;;;;;;;2.25;2.25;;;;;;;;5053802;28;45743;-74
2021/11/02 03:02:36;;;;;;;;;2.50;1.00;;;;;;;;5053753;28;47533;-74
2021/11/02 03:05:03;;;;;;;;;2.00;0.00;;;;;;;;5053361;28;45469;-74
2021/11/02 03:07:30;;;;;;;;;3.00;1.50;;;;;;;;5054279;28;45339;-74
2021/11/02 03:09:55;;;;;;;;;0.00;0.00;;;;;;;;5055788;28;45268;-74
2021/11/02 03:12:26;;;;;;;;;0.00;0.00;;;;;;;;5053438;28;45933;-73
2021/11/02 03:17:28;;;;;;;;;1.75;0.75;;;;;;;;5052877;28;45401;-74
2021/11/02 03:55:35;;;;;;;;;0.25;0.25;;;;;;;;4992468;28;45410;-74
2021/11/02 03:58:05;;;;;;;;;1.50;1.00;;;;;;;;4991674;28;45431;-74
2021/11/02 04:28:12;;;;;;;;;0.75;0.75;;;;;;;;4988732;28;45937;-73
2021/11/02 05:14:01;;;;;;;;;3.75;1.00;;;;;;;;5053288;28;45395;-74
2021/11/02 05:47:08;;;;;;;;;1.00;1.00;;;;;;;;4959716;28;45432;-74
2021/11/02 05:57:38;;;;;;;;;3.50;1.50;;;;;;;;4908493;28;45411;-74
2021/11/02 06:00:12;;;;;;;;;1.50;1.00;;;;;;;;4971819;28;45417;-74
2021/11/02 06:10:34;;;;;;;;;3.00;2.00;;;;;;;;4973773;28;45432;-74
2021/11/02 06:29:33;;;;;;;;;1.00;1.00;;;;;;;;5014304;28;45394;-75
2021/11/02 06:32:07;;;;;;;;;0.00;0.00;;;;;;;;5053491;28;45493;-74
2021/11/02 06:48:22;;;;;;;;;0.00;0.00;;;;;;;;4988931;28;46157;-73
2021/11/02 07:28:27;;;;;;;;;1.50;0.50;;;;;;;;4929172;28;45372;-76
2021/11/02 08:46:14;;;;;;;;;2.75;1.00;;;;;;;;5045210;28;45534;-79
2021/11/02 08:48:40;;;;;;;;;1.00;1.00;;;;;;;;5052733;28;46369;-78
2021/11/02 08:51:06;;;;;;;;;1.00;1.00;;;;;;;;5053778;28;45485;-78
2021/11/02 08:53:31;;;;;;;;;2.50;1.00;;;;;;;;5036411;28;45410;-79
2021/11/02 08:55:57;;;;;;;;;1.25;1.25;;;;;;;;5054864;28;45374;-78
2021/11/02 08:58:24;;;;;;;;;1.50;1.50;;;;;;;;5057315;28;47259;-76
2021/11/02 09:00:49;;;;;;;;;1.00;1.00;;;;;;;;5055721;28;45344;-77
2021/11/02 09:03:15;;;;;;;;;0.25;0.25;;;;;;;;5054815;28;45438;-77
2021/11/02 09:05:41;;;;;;;;;1.25;1.25;;;;;;;;5053162;28;45395;-76
2021/11/02 09:08:08;;;;;;;;;2.50;2.00;;;;;;;;5053808;28;45547;-79
2021/11/02 09:10:33;;;;;;;;;1.00;1.00;;;;;;;;5037048;28;45511;-76
2021/11/02 09:12:59;;;;;;;;;1.00;0.75;;;;;;;;5057262;28;45640;-77
2021/11/02 09:15:26;;;;;;;;;1.25;1.25;;;;;;;;5054556;28;45424;-78
2021/11/02 09:17:55;;;;;;;;;2.50;2.50;;;;;;;;5054384;28;46063;-77
2021/11/02 09:20:21;;;;;;;;;1.50;0.75;;;;;;;;5054187;28;45308;-76
2021/11/02 09:22:47;;;;;;;;;2.00;1.00;;;;;;;;5053190;28;45303;-77
2021/11/02 09:25:13;;;;;;;;;3.00;2.00;;;;;;;;5057883;28;45439;-76
2021/11/02 09:27:39;;;;;;;;;3.50;1.00;;;;;;;;5053021;28;46009;-77
2021/11/02 09:30:08;;;;;;;;;1.25;1.25;;;;;;;;5054475;28;45538;-76
2021/11/02 09:32:37;;;;;;;;;0.00;0.00;;;;;;;;5054413;28;45289;-78
2021/11/02 09:35:03;;;;;;;;;3.25;2.00;;;;;;;;5054236;28;45564;-78
2021/11/02 09:37:31;;;;;;;;;3.50;0.00;;;;;;;;5054497;28;46080;-77
2021/11/02 09:39:59;;;;;;;;;1.00;1.00;;;;;;;;5056412;28;45964;-77
2021/11/02 09:42:51;;;;;;;;;3.75;2.00;;;;;;;;5054178;28;45471;-77
2021/11/02 09:45:35;;;;;;;;;6.00;2.00;;;;;;;;5054107;28;45557;-76
2021/11/02 09:48:20;;;;;;;;;4.50;2.75;;;;;;;;5055141;28;45524;-76
2021/11/02 09:51:09;;;;;;;;;1.75;0.00;;;;;;;;5053576;28;45490;-78
2021/11/02 09:53:46;;;;;;;;;2.00;1.25;;;;;;;;5053796;28;45297;-77
2021/11/02 09:56:19;;;;;;;;;2.50;2.50;;;;;;;;5053385;28;45503;-76
2021/11/02 09:59:02;;;;;;;;;7.75;3.00;;;;;;;;5053799;28;45477;-76
2021/11/02 10:01:37;;;;;;;;;1.00;1.00;;;;;;;;5052369;28;47924;-77
2021/11/02 10:04:03;;;;;;;;;3.00;2.00;;;;;;;;5053603;28;45391;-76
2021/11/02 10:06:37;;;;;;;;;0.25;0.25;;;;;;;;5051706;28;45537;-75
2021/11/02 10:09:02;;;;;;;;;1.00;1.00;;;;;;;;5053275;28;45486;-77
2021/11/02 10:11:37;;;;;;;;;0.75;0.75;;;;;;;;5053575;28;45347;-77
2021/11/02 10:14:13;;;;;;;;;0.00;0.00;;;;;;;;5053123;28;45458;-77
2021/11/02 10:16:41;;;;;;;;;0.00;0.00;;;;;;;;5035470;28;45267;-78
2021/11/02 10:19:26;;;;;;;;;3.75;2.00;;;;;;;;5055429;28;45311;-77
2021/11/02 10:22:06;;;;;;;;;1.00;1.00;;;;;;;;5065585;28;45329;-77
2021/11/02 10:24:31;;;;;;;;;0.75;0.75;;;;;;;;5053544;28;45400;-77
2021/11/02 10:26:56;;;;;;;;;1.00;0.00;;;;;;;;5034878;28;45679;-75
2021/11/02 10:29:24;;;;;;;;;0.00;0.00;;;;;;;;5053310;28;45341;-74
2021/11/02 10:32:16;;;;;;;;;1.25;0.25;;;;;;;;5053942;28;45389;-77
2021/11/02 10:34:41;;;;;;;;;0.25;0.25;;;;;;;;5031731;28;45638;-78
2021/11/02 10:37:23;;;;;;;;;0.33;0.00;;;;;;;;5055491;28;45432;-76
2021/11/02 10:40:23;;;;;;;;;1.00;1.00;;;;;;;;5052334;28;46973;-77
2021/11/02 10:42:54;;;;;;;;;0.75;0.00;;;;;;;;4960649;28;45521;-77
2021/11/02 10:45:23;;;;;;;;;1.00;1.00;;;;;;;;4969469;28;45562;-78
2021/11/02 10:48:03;;;;;;;;;0.00;0.00;;;;;;;;4967866;28;45619;-78
2021/11/02 10:50:29;;;;;;;;;0.50;0.50;;;;;;;;4961450;28;47376;-78
2021/11/02 10:52:58;;;;;;;;;1.00;1.00;;;;;;;;4957637;28;45642;-77
2021/11/02 10:55:40;;;;;;;;;4.25;4.25;;;;;;;;4956819;28;45464;-77
2021/11/02 10:58:09;;;;;;;;;1.75;0.00;;;;;;;;4958833;28;45438;-77
2021/11/02 11:00:35;;;;;;;;;0.75;0.00;;;;;;;;4961438;28;45338;-78
2021/11/02 11:03:06;;;;;;;;;1.00;1.00;;;;;;;;4966401;28;45497;-75
2021/11/02 11:05:32;;;;;;;;;1.00;1.00;;;;;;;;4970696;28;45337;-77
2021/11/02 11:07:58;;;;;;;;;1.00;1.00;;;;;;;;4958406;28;45522;-76
2021/11/02 11:10:23;;;;;;;;;1.00;1.00;;;;;;;;4970389;28;45504;-78
2021/11/02 11:12:51;;;;;;;;;1.50;1.00;;;;;;;;4960451;28;45624;-76
2021/11/02 11:15:16;;;;;;;;;0.50;0.50;;;;;;;;4961285;28;45349;-77
2021/11/02 11:17:45;;;;;;;;;1.00;1.00;;;;;;;;4975203;28;45542;-75
2021/11/02 11:20:14;;;;;;;;;1.00;1.00;;;;;;;;5030482;28;46988;-78
2021/11/02 11:22:39;;;;;;;;;0.00;0.00;;;;;;;;5031943;28;45414;-79
2021/11/02 11:25:15;;;;;;;;;1.00;1.00;;;;;;;;5034601;28;45382;-76
2021/11/02 11:27:45;;;;;;;;;2.00;0.67;;;;;;;;5032338;28;45696;-77
2021/11/02 11:30:11;;;;;;;;;1.00;0.00;;;;;;;;5031475;28;46969;-78
2021/11/02 11:32:37;;;;;;;;;1.33;0.67;;;;;;;;5032025;28;45324;-77
2021/11/02 11:35:03;;;;;;;;;1.00;1.00;;;;;;;;5032152;28;45422;-78
2021/11/02 11:37:34;;;;;;;;;1.00;1.00;;;;;;;;5032395;28;45519;-78
2021/11/02 11:40:00;;;;;;;;;1.00;1.00;;;;;;;;5032112;28;46201;-77
2021/11/02 11:42:29;;;;;;;;;1.00;1.00;;;;;;;;5034428;28;45383;-78
2021/11/02 11:44:58;;;;;;;;;1.00;1.00;;;;;;;;5035857;28;45455;-78
2021/11/02 11:47:24;;;;;;;;;0.00;0.00;;;;;;;;5033994;28;45447;-76
2021/11/02 11:49:51;;;;;;;;;0.67;0.00;;;;;;;;5050229;28;46999;-74
2021/11/02 11:52:23;;;;;;;;;0.00;0.00;;;;;;;;5053448;28;45399;-76
2021/11/02 11:54:49;;;;;;;;;1.00;1.00;;;;;;;;5050910;28;45403;-76
2021/11/02 11:57:25;;;;;;;;;1.00;1.00;;;;;;;;5051818;28;45441;-77
2021/11/02 11:59:50;;;;;;;;;0.67;0.67;;;;;;;;5046291;28;47311;-81
2021/11/02 12:02:32;;;;;;;;;1.67;1.67;;;;;;;;5054487;28;45427;-83
2021/11/02 12:04:59;;;;;;;;;0.33;0.33;;;;;;;;5044523;28;45390;-74
2021/11/02 12:07:27;;;;;;;;;0.00;0.00;;;;;;;;5056554;28;45620;-72
2021/11/02 12:09:53;;;;;;;;;2.33;1.33;;;;;;;;5055871;28;46651;-73
2021/11/02 12:12:22;;;;;;;;;1.00;1.00;;;;;;;;5054694;28;45427;-72
2021/11/02 12:14:51;;;;;;;;;5.25;5.25;;;;;;;;5052559;28;47308;-74
2021/11/02 12:17:18;;;;;;;;;1.00;1.00;;;;;;;;5054839;28;45487;-72
2021/11/02 12:19:48;;;;;;;;;1.00;1.00;;;;;;;;5055057;28;46329;-73
2021/11/02 12:22:28;;;;;;;;;0.33;0.33;;;;;;;;5052660;28;45470;-73
2021/11/02 12:25:08;;;;;;;;;1.00;1.00;;;;;;;;5055699;28;45334;-72
2021/11/02 12:27:40;;;;;;;;;2.33;1.33;;;;;;;;5054385;28;45431;-72
2021/11/02 12:30:08;;;;;;;;;4.00;1.33;;;;;;;;5053210;28;45390;-72
2021/11/02 12:32:33;;;;;;;;;0.33;0.33;;;;;;;;5054447;28;45360;-72
2021/11/02 12:35:09;;;;;;;;;2.00;2.00;;;;;;;;5054415;28;45312;-73
2021/11/02 12:37:59;;;;;;;;;2.00;1.00;;;;;;;;5047883;28;45685;-74
2021/11/02 12:40:26;;;;;;;;;1.33;1.33;;;;;;;;5051886;28;47051;-72
2021/11/02 12:42:51;;;;;;;;;4.00;4.00;;;;;;;;5055159;28;45417;-73
2021/11/02 12:45:18;;;;;;;;;1.67;1.00;;;;;;;;5039244;28;45630;-73
2021/11/02 12:47:44;;;;;;;;;1.33;1.33;;;;;;;;5051548;28;45620;-73
2021/11/02 12:50:10;;;;;;;;;2.00;2.00;;;;;;;;5054253;28;45956;-75
2021/11/02 12:52:36;;;;;;;;;0.67;0.67;;;;;;;;5054591;28;45498;-73
2021/11/02 12:55:04;;;;;;;;;2.00;0.00;;;;;;;;5056555;28;45508;-73
2021/11/02 12:57:34;;;;;;;;;0.00;0.00;;;;;;;;5054007;28;45403;-73
2021/11/02 12:59:59;;;;;;;;;1.00;1.00;;;;;;;;5053676;28;45983;-73
2021/11/02 13:02:32;;;;;;;;;2.00;1.00;;;;;;;;5035977;28;46024;-73
2021/11/02 13:05:17;;;;;;;;;0.00;0.00;;;;;;;;5054781;28;45456;-73
2021/11/02 13:07:43;;;;;;;;;0.67;0.67;;;;;;;;5054448;28;45314;-73
2021/11/02 13:10:14;;;;;;;;;3.00;1.33;;;;;;;;5055812;28;45621;-74
2021/11/02 13:12:41;;;;;;;;;0.33;0.33;;;;;;;;5052915;28;45342;-74
2021/11/02 13:15:11;;;;;;;;;0.00;0.00;;;;;;;;5053808;28;45476;-71
2021/11/02 13:17:46;;;;;;;;;1.67;1.00;;;;;;;;5051139;28;45443;-74
2021/11/02 13:20:13;;;;;;;;;1.00;1.00;;;;;;;;5052503;28;46268;-72
2021/11/02 13:22:48;;;;;;;;;1.00;1.00;;;;;;;;5053896;28;45615;-73
2021/11/02 13:25:15;;;;;;;;;0.67;0.67;;;;;;;;5056050;28;45252;-74
2021/11/02 13:27:41;;;;;;;;;2.00;1.00;;;;;;;;5052353;28;45656;-74
2021/11/02 13:30:25;;;;;;;;;1.00;1.00;;;;;;;;5053404;28;45579;-73
2021/11/02 13:32:53;;;;;;;;;1.00;1.00;;;;;;;;5053797;28;45688;-73
2021/11/02 13:35:35;;;;;;;;;0.00;0.00;;;;;;;;5053084;28;45610;-74
2021/11/02 13:38:17;;;;;;;;;2.67;0.00;;;;;;;;5039975;28;45381;-73
2021/11/02 13:40:42;;;;;;;;;0.00;0.00;;;;;;;;5054034;28;46151;-73
2021/11/02 13:43:07;;;;;;;;;0.00;0.00;;;;;;;;5056060;28;45419;-73
2021/11/02 13:45:32;;;;;;;;;0.33;0.33;;;;;;;;5054122;28;45301;-73
2021/11/02 13:47:58;;;;;;;;;0.00;0.00;;;;;;;;5053651;28;45970;-74
2021/11/02 13:50:24;;;;;;;;;0.67;0.67;;;;;;;;5053720;28;47871;-73
2021/11/02 13:52:52;;;;;;;;;0.33;0.33;;;;;;;;5035885;28;45455;-73
2021/11/02 13:55:18;;;;;;;;;1.33;1.33;;;;;;;;5056463;28;45521;-73
2021/11/02 13:57:43;;;;;;;;;2.00;2.00;;;;;;;;5047427;28;45515;-73
2021/11/02 14:00:09;;;;;;;;;0.67;0.00;;;;;;;;5052240;28;47272;-74
2021/11/02 14:02:35;;;;;;;;;1.00;1.00;;;;;;;;5053661;28;45537;-74
2021/11/02 14:05:01;;;;;;;;;2.67;2.67;;;;;;;;5053936;28;45442;-74
2021/11/02 14:07:30;;;;;;;;;5.00;1.67;;;;;;;;5054119;28;45237;-73
2021/11/02 14:09:55;;;;;;;;;3.00;1.67;;;;;;;;5036099;28;46769;-72
2021/11/02 14:12:30;;;;;;;;;0.00;0.00;;;;;;;;5053342;28;45417;-74
2021/11/02 14:15:10;;;;;;;;;0.00;0.00;;;;;;;;5053059;28;45374;-74
2021/11/02 14:17:39;;;;;;;;;2.00;1.00;;;;;;;;5053654;28;45484;-73
2021/11/02 14:20:05;;;;;;;;;0.00;0.00;;;;;;;;5053785;28;45641;-73
2021/11/02 14:22:48;;;;;;;;;0.00;0.00;;;;;;;;5054032;28;45340;-74
2021/11/02 14:25:30;;;;;;;;;2.00;2.00;;;;;;;;5054516;28;45320;-74
2021/11/02 14:27:56;;;;;;;;;5.33;4.00;;;;;;;;5054296;28;45262;-73
2021/11/02 14:30:21;;;;;;;;;6.75;5.00;;;;;;;;5052761;28;45517;-70
2021/11/02 14:32:51;;;;;;;;;2.00;0.00;;;;;;;;5052872;28;45335;-73
2021/11/02 14:35:35;;;;;;;;;0.00;0.00;;;;;;;;5051064;28;45329;-73
2021/11/02 14:38:04;;;;;;;;;0.67;0.67;;;;;;;;5037007;28;45809;-72
2021/11/02 14:40:31;;;;;;;;;0.33;0.33;;;;;;;;5052710;28;46285;-73
2021/11/02 14:42:57;;;;;;;;;1.67;0.00;;;;;;;;5035511;28;45641;-72
2021/11/02 14:45:41;;;;;;;;;1.00;1.00;;;;;;;;5052334;28;45462;-74
2021/11/02 14:48:24;;;;;;;;;2.75;0.50;;;;;;;;5052570;28;45306;-73
2021/11/02 14:50:50;;;;;;;;;4.50;4.00;;;;;;;;5051827;28;45498;-74
2021/11/02 14:53:27;;;;;;;;;1.00;1.00;;;;;;;;5052219;28;45600;-72
2021/11/02 14:56:08;;;;;;;;;1.25;1.25;;;;;;;;5036804;28;45274;-74
2021/11/02 14:58:39;;;;;;;;;1.00;1.00;;;;;;;;5052408;28;45562;-74
2021/11/02 15:01:24;;;;;;;;;0.00;0.00;;;;;;;;5054302;28;47069;-73
2021/11/02 15:03:53;;;;;;;;;1.00;0.00;;;;;;;;5054878;28;45375;-73
2021/11/02 15:06:19;;;;;;;;;2.00;0.00;;;;;;;;5039549;28;45517;-74
2021/11/02 15:08:44;;;;;;;;;0.25;0.25;;;;;;;;5049855;28;46385;-74
2021/11/02 15:11:10;;;;;;;;;0.75;0.75;;;;;;;;5051628;28;46228;-73
2021/11/02 15:13:37;;;;;;;;;3.00;3.00;;;;;;;;5052235;28;45350;-73
2021/11/02 15:16:02;;;;;;;;;2.00;1.25;;;;;;;;5053851;28;45487;-73
2021/11/02 15:18:44;;;;;;;;;1.50;1.50;;;;;;;;5050310;28;45230;-73
2021/11/02 15:21:10;;;;;;;;;3.00;1.00;;;;;;;;5051181;28;46461;-73
2021/11/02 15:23:42;;;;;;;;;2.75;2.00;;;;;;;;5051086;28;45491;-74
2021/11/02 15:26:08;;;;;;;;;2.00;1.00;;;;;;;;5051251;28;45723;-73
2021/11/02 15:28:41;;;;;;;;;2.50;0.50;;;;;;;;5032722;28;45463;-73
2021/11/02 15:31:06;;;;;;;;;1.00;1.00;;;;;;;;5053102;28;46867;-73
2021/11/02 15:33:32;;;;;;;;;0.00;0.00;;;;;;;;5034338;28;45858;-73
2021/11/02 15:36:08;;;;;;;;;2.00;0.25;;;;;;;;5050756;28;45386;-72
2021/11/02 15:38:33;;;;;;;;;4.00;2.00;;;;;;;;5050439;28;45299;-73
2021/11/02 15:40:59;;;;;;;;;1.75;0.75;;;;;;;;5051156;28;46086;-73
2021/11/02 15:43:25;;;;;;;;;0.00;0.00;;;;;;;;5052702;28;45364;-72
2021/11/02 15:45:50;;;;;;;;;2.50;0.50;;;;;;;;5052626;28;45422;-72
2021/11/02 15:48:19;;;;;;;;;0.00;0.00;;;;;;;;5051365;28;45378;-72
2021/11/02 15:50:46;;;;;;;;;0.75;0.75;;;;;;;;5050724;28;47210;-73
2021/11/02 15:53:12;;;;;;;;;0.75;0.75;;;;;;;;5049642;28;45460;-72
2021/11/02 15:55:37;;;;;;;;;0.75;0.00;;;;;;;;5051887;28;45554;-73
2021/11/02 15:58:06;;;;;;;;;0.00;0.00;;;;;;;;5053151;28;45527;-72
2021/11/02 16:00:32;;;;;;;;;1.00;1.00;;;;;;;;5051335;28;46076;-72
2021/11/02 16:02:58;;;;;;;;;0.00;0.00;;;;;;;;5050883;28;45426;-73
2021/11/02 16:05:25;;;;;;;;;1.75;0.00;;;;;;;;5051350;28;45485;-73
2021/11/02 16:07:51;;;;;;;;;1.00;1.00;;;;;;;;5050816;28;45352;-76
2021/11/02 16:10:17;;;;;;;;;4.25;3.75;;;;;;;;5053418;28;45324;-73
2021/11/02 16:12:45;;;;;;;;;1.00;1.00;;;;;;;;5049663;28;45398;-72
2021/11/02 16:15:11;;;;;;;;;1.75;1.75;;;;;;;;5051382;28;45550;-72
2021/11/02 16:17:41;;;;;;;;;1.00;1.00;;;;;;;;5052365;28;45454;-72
2021/11/02 16:20:12;;;;;;;;;0.50;0.50;;;;;;;;5050397;28;45501;-73
2021/11/02 16:22:44;;;;;;;;;1.50;1.50;;;;;;;;5048705;28;45297;-74
2021/11/02 16:25:10;;;;;;;;;3.75;2.00;;;;;;;;5052399;28;45415;-73
2021/11/02 16:27:36;;;;;;;;;1.75;1.75;;;;;;;;5049319;28;45371;-73
2021/11/02 16:30:12;;;;;;;;;3.75;2.50;;;;;;;;5048397;28;45366;-74
2021/11/02 16:32:38;;;;;;;;;3.75;2.50;;;;;;;;5049255;28;45422;-74
2021/11/02 16:35:03;;;;;;;;;2.25;2.25;;;;;;;;5048463;28;45454;-74
2021/11/02 16:37:33;;;;;;;;;2.00;2.00;;;;;;;;5051699;28;46164;-74
2021/11/02 16:40:17;;;;;;;;;3.75;2.25;;;;;;;;5050042;28;45884;-74
2021/11/02 16:42:49;;;;;;;;;3.25;2.00;;;;;;;;5050363;28;45339;-75
2021/11/02 16:45:14;;;;;;;;;3.50;3.00;;;;;;;;5049708;28;45304;-74
2021/11/02 16:47:40;;;;;;;;;2.25;2.25;;;;;;;;5051905;28;45225;-73
2021/11/02 16:50:06;;;;;;;;;6.00;5.00;;;;;;;;5052027;28;45689;-75
2021/11/02 16:52:32;;;;;;;;;3.25;2.00;;;;;;;;5053567;28;45669;-73
2021/11/02 16:55:11;;;;;;;;;2.25;2.25;;;;;;;;5053418;28;45483;-75
2021/11/02 16:57:37;;;;;;;;;2.00;2.00;;;;;;;;5052766;28;45386;-74
2021/11/02 17:00:10;;;;;;;;;4.00;1.50;;;;;;;;5052957;28;47201;-73
2021/11/02 17:02:38;;;;;;;;;5.25;3.75;;;;;;;;5053716;28;45325;-73
2021/11/02 17:05:04;;;;;;;;;3.75;2.75;;;;;;;;5052964;28;45396;-73
2021/11/02 17:07:52;;;;;;;;;1.00;1.00;;;;;;;;5054503;28;45329;-73
2021/11/02 17:10:17;;;;;;;;;1.00;1.00;;;;;;;;5040141;28;45364;-74
2021/11/02 17:12:46;;;;;;;;;3.00;2.00;;;;;;;;5051562;28;45421;-74
2021/11/02 17:15:12;;;;;;;;;3.00;3.00;;;;;;;;5051586;28;45419;-73
2021/11/02 17:17:40;;;;;;;;;3.25;3.25;;;;;;;;5053069;28;45466;-72
2021/11/02 17:20:08;;;;;;;;;3.00;3.00;;;;;;;;5053205;28;46235;-73
2021/11/02 17:22:34;;;;;;;;;4.00;4.00;;;;;;;;5052604;28;45384;-73
2021/11/02 17:24:59;;;;;;;;;4.25;3.50;;;;;;;;5055270;28;45446;-73
2021/11/02 17:27:24;;;;;;;;;2.25;2.25;;;;;;;;5053111;28;45439;-74
2021/11/02 17:29:50;;;;;;;;;3.75;2.50;;;;;;;;5052410;28;46362;-73
2021/11/02 17:32:15;;;;;;;;;4.25;4.25;;;;;;;;5052791;28;45405;-72
2021/11/02 17:34:41;;;;;;;;;3.00;2.50;;;;;;;;5052732;28;45558;-74
2021/11/02 17:37:07;;;;;;;;;1.00;1.00;;;;;;;;5054927;28;45437;-73
2021/11/02 17:39:34;;;;;;;;;2.50;2.50;;;;;;;;5052476;28;46107;-73
2021/11/02 17:41:59;;;;;;;;;4.00;4.00;;;;;;;;5052483;28;45403;-75
2021/11/02 17:44:25;;;;;;;;;4.50;4.50;;;;;;;;5045492;28;45313;-74
2021/11/02 17:46:50;;;;;;;;;3.00;3.00;;;;;;;;5037066;28;45361;-72
2021/11/02 17:49:16;;;;;;;;;5.00;3.50;;;;;;;;5053836;28;47092;-74
2021/11/02 17:51:44;;;;;;;;;4.25;3.25;;;;;;;;5050899;28;45445;-72
2021/11/02 17:54:09;;;;;;;;;2.50;2.50;;;;;;;;5051428;28;45632;-74
2021/11/02 17:56:35;;;;;;;;;2.00;2.00;;;;;;;;5053215;28;45408;-73
2021/11/02 17:59:01;;;;;;;;;5.00;3.00;;;;;;;;5052534;28;46033;-73
2021/11/02 18:01:28;;;;;;;;;4.00;4.00;;;;;;;;5053738;28;45387;-74
2021/11/02 18:03:54;;;;;;;;;3.75;2.50;;;;;;;;5053124;28;45299;-76
2021/11/02 18:06:20;;;;;;;;;4.00;3.75;;;;;;;;5052598;28;45340;-73
2021/11/02 18:08:46;;;;;;;;;4.75;3.50;;;;;;;;5051661;28;45422;-75
2021/11/02 18:11:12;;;;;;;;;4.75;3.00;;;;;;;;5052544;28;45393;-76
2021/11/02 18:13:38;;;;;;;;;4.75;4.75;;;;;;;;5052682;28;45396;-76
2021/11/02 18:16:07;;;;;;;;;5.00;5.00;;;;;;;;5054424;28;45392;-77
2021/11/02 18:18:37;;;;;;;;;4.75;4.75;;;;;;;;5051727;28;46428;-76
2021/11/02 18:21:03;;;;;;;;;6.00;6.00;;;;;;;;5033861;28;45523;-75
2021/11/02 18:23:28;;;;;;;;;5.00;5.00;;;;;;;;5052069;28;45507;-75
2021/11/02 18:25:54;;;;;;;;;5.00;3.00;;;;;;;;5052599;28;45349;-73
2021/11/02 18:28:19;;;;;;;;;4.50;3.75;;;;;;;;5053879;28;46090;-74
2021/11/02 18:30:44;;;;;;;;;5.00;3.75;;;;;;;;5051039;28;45401;-76
2021/11/02 18:33:10;;;;;;;;;6.75;4.25;;;;;;;;5050267;28;45457;-72
2021/11/02 18:35:38;;;;;;;;;4.00;3.00;;;;;;;;5052138;28;45526;-75
2021/11/02 18:38:04;;;;;;;;;6.75;6.75;;;;;;;;5052266;28;46406;-74
2021/11/02 18:40:30;;;;;;;;;4.75;3.25;;;;;;;;5053303;28;45606;-75
2021/11/02 18:42:56;;;;;;;;;6.00;5.00;;;;;;;;5053635;28;45257;-75
2021/11/02 18:45:24;;;;;;;;;7.50;5.00;;;;;;;;5051815;28;45674;-75
2021/11/02 18:47:50;;;;;;;;;26.00;21.00;;;;;;;;5051627;28;45405;-73
2021/11/02 18:50:16;;;;;;;;;11.50;10.50;;;;;;;;5052449;28;45468;-75
2021/11/02 18:52:41;;;;;;;;;14.25;12.25;;;;;;;;5053244;28;45427;-75
2021/11/02 18:55:08;;;;;;;;;10.25;10.00;;;;;;;;5054586;28;45380;-74
2021/11/02 18:57:40;;;;;;;;;8.25;7.00;;;;;;;;5051538;28;46580;-74
2021/11/02 19:00:10;;;;;;;;;8.50;6.00;;;;;;;;5051204;28;45382;-75
2021/11/02 19:02:39;;;;;;;;;8.75;7.50;;;;;;;;5051618;28;45304;-74
2021/11/02 19:05:05;;;;;;;;;10.75;9.00;;;;;;;;5051912;28;45409;-74
2021/11/02 19:07:31;;;;;;;;;12.25;11.50;;;;;;;;5052543;28;46199;-75
2021/11/02 19:09:56;;;;;;;;;7.50;6.25;;;;;;;;5051278;28;45394;-74
2021/11/02 19:12:21;;;;;;;;;10.50;9.00;;;;;;;;5050527;28;45551;-75
2021/11/02 19:14:47;;;;;;;;;12.75;11.00;;;;;;;;5051330;28;45413;-73
2021/11/02 19:17:13;;;;;;;;;14.25;11.50;;;;;;;;5051937;28;46964;-75
2021/11/02 19:19:38;;;;;;;;;10.00;10.00;;;;;;;;5051905;28;45394;-74
2021/11/02 19:22:03;;;;;;;;;11.50;10.00;;;;;;;;5054467;28;45401;-74
2021/11/02 19:24:28;;;;;;;;;18.75;15.25;;;;;;;;5049889;28;45482;-74
2021/11/02 19:26:54;;;;;;;;;11.25;9.00;;;;;;;;5052131;28;45277;-73
2021/11/02 19:29:19;;;;;;;;;10.25;9.25;;;;;;;;5051842;28;45388;-75
2021/11/02 19:31:44;;;;;;;;;14.00;11.75;;;;;;;;5051984;28;45429;-74
2021/11/02 19:34:09;;;;;;;;;15.75;14.75;;;;;;;;5054137;28;45331;-74
2021/11/02 19:36:35;;;;;;;;;11.50;11.50;;;;;;;;5052122;28;46098;-75
2021/11/02 19:39:00;;;;;;;;;21.50;18.00;;;;;;;;5051970;28;45462;-74
2021/11/02 19:41:26;;;;;;;;;20.00;15.00;;;;;;;;5052296;28;45426;-74
2021/11/02 19:43:51;;;;;;;;;13.75;10.75;;;;;;;;5051434;28;45669;-75
2021/11/02 19:46:16;;;;;;;;;12.25;12.25;;;;;;;;5053465;28;46347;-74
2021/11/02 19:48:43;;;;;;;;;15.75;14.00;;;;;;;;5050252;28;45362;-74
2021/11/02 19:51:10;;;;;;;;;14.75;14.25;;;;;;;;5050245;28;45375;-74